Time;durP1;ratioP1;P1;durP2;ratioP2;P2;SDS_P1;SDS_P2;PMS_P1;PMS_P2;Temp;Humidity;BMP_temperature;BMP_pressure;BME280_temperature;BME280_humidity;BME280_pressure;Samples;Min_cycle;Max_cycle;Signal;HPM_P1;HPM_P2
2021/09/01 00:00:34;;;;;;;4.75;3.90;;;;;;;15.42;75.19;102200.75;5090607;28;20381;-79
2021/09/01 00:02:59;;;;;;;6.65;4.05;;;;;;;15.44;75.59;102210.38;5093912;28;20432;-80
2021/09/01 00:05:25;;;;;;;7.22;4.63;;;;;;;15.48;75.88;102208.72;5096942;28;20040;-81
2021/09/01 00:07:50;;;;;;;5.88;4.50;;;;;;;15.51;76.36;102210.91;5097619;28;20362;-80
2021/09/01 00:10:16;;;;;;;8.35;4.57;;;;;;;15.50;76.51;102214.78;5097505;28;20504;-80
2021/09/01 00:12:43;;;;;;;7.75;4.85;;;;;;;15.48;77.04;102214.22;5096074;28;20047;-80
2021/09/01 00:15:10;;;;;;;8.30;5.07;;;;;;;15.48;77.40;102216.16;5095258;28;20020;-80
2021/09/01 00:17:37;;;;;;;6.28;4.57;;;;;;;15.48;77.61;102210.66;5095682;28;20059;-80
2021/09/01 00:20:04;;;;;;;10.40;5.72;;;;;;;15.48;77.95;102218.91;5096293;28;20020;-80
2021/09/01 00:22:29;;;;;;;7.85;4.82;;;;;;;15.48;78.21;102216.97;5094962;28;20534;-80
2021/09/01 00:24:54;;;;;;;24.23;12.90;;;;;;;15.49;78.76;102224.09;5096075;28;20035;-80
2021/09/01 00:27:20;;;;;;;12.63;7.50;;;;;;;15.48;78.95;102227.97;5095847;28;20029;-79
2021/09/01 00:29:45;;;;;;;8.48;5.60;;;;;;;15.48;79.27;102222.47;5096914;28;20385;-80
2021/09/01 00:32:10;;;;;;;9.43;5.40;;;;;;;15.48;79.36;102227.13;5072817;28;20028;-80
2021/09/01 00:34:36;;;;;;;8.82;5.50;;;;;;;15.47;79.61;102231.81;5096870;28;20027;-80
2021/09/01 00:37:02;;;;;;;6.80;4.75;;;;;;;15.47;79.77;102226.31;5095582;28;20012;-80
2021/09/01 00:39:27;;;;;;;8.07;4.43;;;;;;;15.48;80.10;102218.91;5097051;28;20128;-80
2021/09/01 00:41:52;;;;;;;7.07;4.60;;;;;;;15.45;80.07;102217.50;5096075;28;20097;-80
2021/09/01 00:44:23;;;;;;;12.23;5.38;;;;;;;15.42;80.38;102223.56;5096784;28;20024;-80
2021/09/01 00:46:49;;;;;;;7.72;5.03;;;;;;;15.40;80.48;102222.19;5092624;28;20031;-81
2021/09/01 00:49:15;;;;;;;8.15;4.63;;;;;;;15.38;80.74;102221.63;5081766;28;20140;-80
2021/09/01 00:51:43;;;;;;;7.90;5.10;;;;;;;15.35;80.79;102227.66;5076469;28;20063;-80
2021/09/01 00:54:10;;;;;;;8.68;5.30;;;;;;;15.30;80.85;102226.56;5096981;28;20528;-80
2021/09/01 00:56:36;;;;;;;5.55;4.78;;;;;;;15.22;80.92;102234.47;5078140;28;20046;-80
2021/09/01 00:59:02;;;;;;;7.45;5.35;;;;;;;15.13;80.86;102234.19;5096559;28;20028;-80
2021/09/01 01:01:27;;;;;;;6.90;4.55;;;;;;;15.08;80.99;102236.91;5088406;28;20028;-80
2021/09/01 01:03:54;;;;;;;6.45;4.72;;;;;;;15.02;80.94;102247.03;5091247;28;20024;-80
2021/09/01 01:06:20;;;;;;;5.82;4.35;;;;;;;14.96;80.95;102242.63;5076051;28;20089;-80
2021/09/01 01:08:47;;;;;;;8.18;4.75;;;;;;;14.90;80.84;102232.72;5096651;28;20073;-80
2021/09/01 01:11:14;;;;;;;8.23;5.28;;;;;;;14.86;80.96;102237.06;5094166;28;20223;-81
2021/09/01 01:13:41;;;;;;;7.20;4.90;;;;;;;14.82;80.89;102249.72;5095576;28;20030;-80
2021/09/01 01:16:07;;;;;;;9.07;5.85;;;;;;;14.82;80.84;102249.72;5092593;28;21097;-80
2021/09/01 01:18:32;;;;;;;7.15;4.78;;;;;;;14.78;81.01;102245.81;5094917;28;20103;-80
2021/09/01 01:20:58;;;;;;;7.03;4.80;;;;;;;14.75;80.84;102246.34;5092885;28;20024;-79
2021/09/01 01:23:26;;;;;;;6.82;4.95;;;;;;;14.72;81.01;102235.91;5096270;28;20032;-80
2021/09/01 01:25:52;;;;;;;7.40;5.22;;;;;;;14.69;80.99;102244.69;5093674;28;20426;-80
2021/09/01 01:28:17;;;;;;;9.15;5.28;;;;;;;14.66;80.93;102246.03;5096048;28;20077;-80
2021/09/01 01:30:42;;;;;;;7.07;4.88;;;;;;;14.64;80.82;102246.28;5096200;28;20369;-80
2021/09/01 01:33:08;;;;;;;10.00;5.70;;;;;;;14.59;80.76;102249.00;5094884;28;20025;-80
2021/09/01 01:35:43;;;;;;;8.15;5.30;;;;;;;14.55;80.84;102250.63;5096037;28;20397;-80
2021/09/01 01:38:10;;;;;;;7.20;5.57;;;;;;;14.53;80.64;102249.25;5094664;28;20032;-80
2021/09/01 01:40:36;;;;;;;7.20;5.75;;;;;;;14.50;80.68;102256.06;5095677;28;20078;-79
2021/09/01 01:43:02;;;;;;;7.07;5.18;;;;;;;14.48;80.63;102250.00;5095266;28;20063;-80
2021/09/01 01:45:38;;;;;;;6.15;5.32;;;;;;;14.47;80.56;102253.84;5093163;28;20579;-79
2021/09/01 01:48:04;;;;;;;7.53;5.10;;;;;;;14.48;80.25;102251.91;5087820;28;20428;-79
2021/09/01 01:50:30;;;;;;;7.95;5.45;;;;;;;14.46;80.39;102249.47;5094985;28;20032;-80
2021/09/01 01:52:55;;;;;;;7.70;6.05;;;;;;;14.46;80.31;102254.09;5093277;28;20027;-80
2021/09/01 01:55:20;;;;;;;7.10;5.15;;;;;;;14.43;80.21;102252.72;5095820;28;20028;-79
2021/09/01 01:57:46;;;;;;;12.00;5.57;;;;;;;14.42;80.13;102256.56;5094055;28;20056;-80
2021/09/01 02:00:12;;;;;;;8.48;4.82;;;;;;;14.39;80.08;102252.41;5094359;28;20035;-80
2021/09/01 02:02:37;;;;;;;6.30;4.75;;;;;;;14.35;79.91;102261.44;5084200;28;20062;-80
2021/09/01 02:05:03;;;;;;;9.40;5.35;;;;;;;14.33;79.68;102269.13;5094784;28;20034;-80
2021/09/01 02:07:29;;;;;;;9.20;4.53;;;;;;;14.32;79.86;102267.44;5092368;28;20543;-79
2021/09/01 02:09:54;;;;;;;6.22;4.40;;;;;;;14.30;79.58;102278.69;5091447;28;20028;-80
2021/09/01 02:12:20;;;;;;;5.95;4.70;;;;;;;14.29;79.56;102277.03;5093174;28;20035;-80
2021/09/01 02:14:45;;;;;;;7.18;4.85;;;;;;;14.29;79.57;102276.19;5092742;28;20036;-80
2021/09/01 02:17:10;;;;;;;7.40;4.97;;;;;;;14.29;79.40;102270.72;5085018;28;20033;-80
2021/09/01 02:19:36;;;;;;;7.40;4.47;;;;;;;14.27;79.38;102279.22;5095098;28;20049;-80
2021/09/01 02:22:02;;;;;;;6.70;5.03;;;;;;;14.25;79.26;102269.59;5085057;28;20386;-80
2021/09/01 02:24:27;;;;;;;7.68;5.03;;;;;;;14.21;79.41;102272.03;5091214;28;20107;-80
2021/09/01 02:26:52;;;;;;;7.32;5.10;;;;;;;14.18;79.34;102278.84;5094041;28;20483;-80
2021/09/01 02:29:18;;;;;;;7.07;5.13;;;;;;;14.15;79.01;102271.16;5093099;28;20028;-80
2021/09/01 02:31:43;;;;;;;7.80;4.72;;;;;;;14.12;79.16;102271.69;5091955;28;20028;-79
2021/09/01 02:34:08;;;;;;;8.10;4.57;;;;;;;14.10;79.19;102278.50;5087057;28;20036;-80
2021/09/01 02:36:34;;;;;;;7.10;5.38;;;;;;;14.08;79.20;102270.56;5085158;28;20008;-80
2021/09/01 02:38:59;;;;;;;5.78;4.60;;;;;;;14.06;78.94;102271.91;5090711;28;20549;-80
2021/09/01 02:41:25;;;;;;;6.00;4.97;;;;;;;14.04;79.11;102274.09;5091573;28;20034;-80
2021/09/01 02:43:50;;;;;;;6.78;5.05;;;;;;;14.01;79.12;102272.69;5092597;28;20465;-80
2021/09/01 02:46:19;;;;;;;9.45;4.80;;;;;;;14.00;79.15;102265.56;5093354;28;20080;-80
2021/09/01 02:48:45;;;;;;;9.38;5.00;;;;;;;13.97;78.95;102277.06;5094271;28;20020;-80
2021/09/01 02:51:10;;;;;;;7.32;4.88;;;;;;;13.93;79.10;102271.25;5094197;28;20054;-80
2021/09/01 02:53:35;;;;;;;8.07;5.25;;;;;;;13.90;79.05;102269.03;5093640;28;20386;-80
2021/09/01 02:56:01;;;;;;;7.93;5.20;;;;;;;13.88;79.15;102268.44;5093411;28;20500;-80
2021/09/01 02:58:26;;;;;;;5.93;4.47;;;;;;;13.85;79.20;102266.22;5093105;28;20035;-79
2021/09/01 03:00:52;;;;;;;6.50;4.68;;;;;;;13.84;79.06;102263.75;5093271;28;20016;-80
2021/09/01 03:03:17;;;;;;;5.93;4.80;;;;;;;13.81;79.37;102269.78;5092647;28;20027;-80
2021/09/01 03:05:43;;;;;;;9.05;5.28;;;;;;;13.77;79.31;102264.78;5076365;28;20032;-80
2021/09/01 03:08:08;;;;;;;9.02;5.15;;;;;;;13.77;79.26;102270.25;5089973;28;20032;-80
2021/09/01 03:10:34;;;;;;;7.55;5.40;;;;;;;13.75;79.39;102266.97;5093228;28;20450;-80
2021/09/01 03:12:59;;;;;;;6.63;4.35;;;;;;;13.74;79.19;102269.97;5091178;28;20027;-80
2021/09/01 03:15:25;;;;;;;8.13;4.90;;;;;;;13.72;79.17;102272.97;5094724;28;20111;-79
2021/09/01 03:17:50;;;;;;;9.90;4.43;;;;;;;13.71;79.33;102268.56;5092763;28;20024;-80
2021/09/01 03:20:15;;;;;;;7.63;4.75;;;;;;;13.71;79.17;102265.81;5093895;28;20035;-80
2021/09/01 03:22:41;;;;;;;6.38;5.18;;;;;;;13.72;79.56;102267.50;5092332;28;20028;-80
2021/09/01 03:25:07;;;;;;;6.88;4.68;;;;;;;13.71;79.18;102271.31;5092477;28;20028;-80
2021/09/01 03:27:32;;;;;;;6.60;4.68;;;;;;;13.68;78.76;102266.34;5092707;28;20036;-80
2021/09/01 03:29:58;;;;;;;6.65;4.45;;;;;;;13.65;78.90;102266.84;5086344;28;20443;-80
2021/09/01 03:32:23;;;;;;;6.25;5.03;;;;;;;13.65;78.59;102275.09;5085028;28;20035;-80
2021/09/01 03:34:48;;;;;;;7.03;4.43;;;;;;;13.64;78.63;102275.31;5091343;28;20019;-80
2021/09/01 03:37:14;;;;;;;6.40;5.05;;;;;;;13.63;78.54;102281.91;5074969;28;20103;-80
2021/09/01 03:39:39;;;;;;;6.15;4.22;;;;;;;13.63;78.38;102288.22;5092949;28;20052;-81
2021/09/01 03:42:05;;;;;;;6.95;4.65;;;;;;;13.62;78.31;102283.81;5074800;28;20039;-81
2021/09/01 03:44:30;;;;;;;6.50;5.03;;;;;;;13.61;77.70;102282.16;5092492;28;20032;-81
2021/09/01 03:46:55;;;;;;;8.55;5.25;;;;;;;13.59;77.84;102278.84;5091448;28;20192;-81
2021/09/01 03:49:22;;;;;;;7.32;4.70;;;;;;;13.59;77.95;102284.34;5092205;28;20050;-81
2021/09/01 03:51:48;;;;;;;8.30;5.07;;;;;;;13.58;77.88;102270.88;5091583;28;20024;-80
2021/09/01 03:54:13;;;;;;;7.38;4.60;;;;;;;13.57;77.85;102272.81;5093632;28;20047;-81
2021/09/01 03:56:39;;;;;;;6.93;4.60;;;;;;;13.56;77.84;102276.63;5086185;28;20031;-81
2021/09/01 03:59:05;;;;;;;6.38;5.00;;;;;;;13.53;77.68;102272.50;5092453;28;20431;-80
2021/09/01 04:01:32;;;;;;;7.68;5.05;;;;;;;13.50;77.82;102273.03;5094116;28;20048;-81
2021/09/01 04:03:58;;;;;;;7.65;5.38;;;;;;;13.49;77.83;102289.69;5089837;28;20032;-81
2021/09/01 04:06:23;;;;;;;8.00;5.35;;;;;;;13.48;77.76;102282.56;5091442;28;20043;-81
2021/09/01 04:08:48;;;;;;;8.43;5.13;;;;;;;13.46;77.71;102290.22;5091033;28;20024;-81
2021/09/01 04:11:14;;;;;;;9.23;6.20;;;;;;;13.45;77.48;102288.53;5090207;28;20504;-81
2021/09/01 04:13:39;;;;;;;7.38;5.18;;;;;;;13.43;77.58;102297.03;5088396;28;20031;-81
2021/09/01 04:16:06;;;;;;;8.45;5.97;;;;;;;13.42;77.43;102294.53;5083099;28;20028;-81
2021/09/01 04:18:31;;;;;;;11.65;6.15;;;;;;;13.41;77.42;102298.38;5091131;28;20035;-80
2021/09/01 04:20:57;;;;;;;7.72;6.05;;;;;;;13.39;77.27;102300.53;5088993;28;20024;-80
2021/09/01 04:23:23;;;;;;;8.18;5.75;;;;;;;13.38;77.48;102296.16;5091864;28;20081;-80
2021/09/01 04:25:49;;;;;;;8.70;5.38;;;;;;;13.37;77.31;102298.06;5091016;28;20019;-81
2021/09/01 04:28:14;;;;;;;9.57;6.03;;;;;;;13.39;77.19;102298.63;5091000;28;20035;-81
2021/09/01 04:30:39;;;;;;;9.50;5.70;;;;;;;13.40;77.19;102296.72;5087109;28;20419;-80
2021/09/01 04:33:05;;;;;;;8.18;5.70;;;;;;;13.41;77.22;102301.94;5088594;28;20032;-80
2021/09/01 04:35:32;;;;;;;10.30;5.68;;;;;;;13.44;77.07;102309.63;5081990;28;20031;-80
2021/09/01 04:37:57;;;;;;;7.15;5.35;;;;;;;13.46;77.01;102306.66;5089350;28;20043;-80
2021/09/01 04:40:22;;;;;;;8.80;5.90;;;;;;;13.51;76.73;102313.03;5091365;28;20490;-80
2021/09/01 04:42:48;;;;;;;7.55;5.20;;;;;;;13.57;76.77;102313.91;5090200;28;20035;-80
2021/09/01 04:45:13;;;;;;;8.50;5.55;;;;;;;13.64;76.74;102313.69;5088294;28;20040;-80
2021/09/01 04:47:38;;;;;;;8.25;5.10;;;;;;;13.70;76.67;102318.19;5092011;28;20431;-80
2021/09/01 04:50:04;;;;;;;8.30;6.00;;;;;;;13.76;76.56;102311.66;5086159;28;20563;-81
2021/09/01 04:52:30;;;;;;;6.28;5.60;;;;;;;13.82;76.32;102310.63;5094064;28;20418;-81
2021/09/01 04:54:55;;;;;;;10.05;5.80;;;;;;;13.88;76.29;102311.50;5095605;28;20027;-81
2021/09/01 04:57:21;;;;;;;7.60;6.15;;;;;;;13.94;76.13;102308.56;5095120;28;20377;-81
2021/09/01 04:59:46;;;;;;;5.78;4.63;;;;;;;14.00;75.95;102314.91;5095840;28;20040;-82
2021/09/01 05:02:11;;;;;;;7.97;5.20;;;;;;;14.06;75.97;102311.13;5095042;28;20077;-81
2021/09/01 05:04:37;;;;;;;8.48;5.70;;;;;;;14.12;75.76;102314.75;5095312;28;20028;-81
2021/09/01 05:07:02;;;;;;;8.00;5.63;;;;;;;14.17;75.69;102307.38;5095086;28;20059;-80
2021/09/01 05:09:28;;;;;;;7.78;5.43;;;;;;;14.24;75.62;102314.56;5096014;28;20028;-80
2021/09/01 05:11:54;;;;;;;8.95;5.82;;;;;;;14.27;75.42;102311.28;5095171;28;20074;-81
2021/09/01 05:14:19;;;;;;;7.18;5.50;;;;;;;14.33;75.42;102310.28;5095174;28;20474;-80
2021/09/01 05:16:44;;;;;;;8.02;5.88;;;;;;;14.38;75.05;102313.06;5093598;28;20020;-81
2021/09/01 05:19:11;;;;;;;7.88;5.40;;;;;;;14.41;75.04;102307.88;5094138;28;20020;-80
2021/09/01 05:21:47;;;;;;;6.78;5.40;;;;;;;14.45;75.01;102308.16;5094175;28;20024;-81
2021/09/01 05:24:19;;;;;;;6.28;5.25;;;;;;;14.48;74.89;102304.06;5085921;28;20369;-81
2021/09/01 05:26:45;;;;;;;6.97;5.13;;;;;;;14.51;74.40;102307.09;5088300;28;20107;-81
2021/09/01 05:29:10;;;;;;;7.40;5.38;;;;;;;14.49;74.54;102306.56;5093648;28;20040;-81
2021/09/01 05:31:35;;;;;;;7.60;5.95;;;;;;;14.48;74.49;102304.88;5088706;28;20028;-80
2021/09/01 05:34:03;;;;;;;8.13;6.07;;;;;;;14.46;74.56;102301.59;5076899;28;20028;-81
2021/09/01 05:36:29;;;;;;;8.90;5.68;;;;;;;14.46;74.28;102304.34;5091909;28;20028;-81
2021/09/01 05:38:55;;;;;;;8.23;5.93;;;;;;;14.44;74.23;102306.53;5093406;28;20123;-81
2021/09/01 05:41:24;;;;;;;7.10;4.63;;;;;;;14.43;74.09;102304.84;5087717;28;20468;-81
2021/09/01 05:43:50;;;;;;;7.53;4.97;;;;;;;14.42;74.10;102305.94;5072308;28;20114;-80
2021/09/01 05:46:16;;;;;;;8.02;5.82;;;;;;;14.44;73.95;102309.25;5076034;28;20028;-81
2021/09/01 05:48:41;;;;;;;7.20;5.10;;;;;;;14.42;74.08;102304.03;5092948;28;20031;-80
2021/09/01 05:51:07;;;;;;;8.48;6.15;;;;;;;14.41;73.68;102309.78;5093349;28;20028;-80
2021/09/01 05:53:32;;;;;;;9.45;6.57;;;;;;;14.40;73.73;102313.59;5075685;28;20458;-81
2021/09/01 05:55:58;;;;;;;7.78;5.82;;;;;;;14.40;73.64;102311.72;5093656;28;20465;-81
2021/09/01 05:58:23;;;;;;;13.63;6.53;;;;;;;14.41;73.79;102309.78;5092259;28;20023;-81
2021/09/01 06:00:55;;;;;;;8.90;6.40;;;;;;;14.41;73.68;102301.56;5076911;28;20020;-79
2021/09/01 06:03:31;;;;;;;11.45;6.63;;;;;;;14.40;73.35;102300.75;5093597;28;20104;-80
2021/09/01 06:05:57;;;;;;;8.18;5.35;;;;;;;14.41;73.53;102302.38;5091618;28;20075;-80
2021/09/01 06:08:30;;;;;;;8.98;5.72;;;;;;;14.42;73.53;102298.53;5093136;28;20414;-81
2021/09/01 06:10:57;;;;;;;7.60;6.15;;;;;;;14.45;73.57;102302.69;5092682;28;21548;-76
2021/09/01 06:13:22;;;;;;;7.88;5.25;;;;;;;14.47;73.44;102305.16;5093169;28;20035;-76
2021/09/01 06:15:48;;;;;;;7.43;5.47;;;;;;;14.50;73.27;102302.72;5090752;28;20025;-79
2021/09/01 06:18:13;;;;;;;6.68;5.10;;;;;;;14.57;73.55;102305.28;5091828;28;20035;-80
2021/09/01 06:20:39;;;;;;;9.02;6.03;;;;;;;14.64;73.36;102309.44;5092864;28;20027;-80
2021/09/01 06:23:04;;;;;;;7.38;5.70;;;;;;;14.73;73.14;102297.94;5089612;28;20416;-81
2021/09/01 06:25:30;;;;;;;9.73;5.82;;;;;;;14.81;73.05;102311.19;5089554;28;20028;-80
2021/09/01 06:27:55;;;;;;;9.63;5.30;;;;;;;14.87;73.10;102305.47;5087372;28;20052;-80
2021/09/01 06:30:20;;;;;;;7.32;5.50;;;;;;;14.94;72.73;102310.72;5089420;28;20028;-80
2021/09/01 06:32:46;;;;;;;7.47;5.95;;;;;;;14.99;72.42;102313.50;5091357;28;20039;-75
2021/09/01 06:35:12;;;;;;;6.25;5.45;;;;;;;15.04;72.44;102308.03;5088980;28;20043;-73
2021/09/01 06:37:38;;;;;;;7.47;5.72;;;;;;;15.10;72.33;102303.38;5092566;28;20027;-83
2021/09/01 06:40:03;;;;;;;6.90;5.32;;;;;;;15.17;71.90;102305.88;5091028;28;20094;-83
2021/09/01 06:42:29;;;;;;;7.25;4.65;;;;;;;15.22;71.54;102312.25;5093268;28;20059;-83
2021/09/01 06:44:54;;;;;;;9.73;5.18;;;;;;;15.29;71.53;102307.31;5091066;28;20031;-83
2021/09/01 06:47:20;;;;;;;8.73;4.93;;;;;;;15.39;71.32;102312.03;5093128;28;20027;-83
2021/09/01 06:49:45;;;;;;;8.05;4.78;;;;;;;15.42;71.26;102311.50;5090816;28;20027;-84
2021/09/01 06:52:11;;;;;;;7.70;5.28;;;;;;;15.46;71.05;102323.59;5085311;28;20024;-83
2021/09/01 06:54:36;;;;;;;8.68;6.07;;;;;;;15.47;70.93;102310.72;5092097;28;20081;-83
2021/09/01 06:57:03;;;;;;;7.75;5.20;;;;;;;15.49;70.77;102303.00;5093205;28;20012;-82
2021/09/01 06:59:29;;;;;;;8.13;5.80;;;;;;;15.53;70.49;102301.38;5088664;28;20047;-82
2021/09/01 07:01:54;;;;;;;9.45;6.20;;;;;;;15.59;70.43;102315.97;5093459;28;20038;-83
2021/09/01 07:04:19;;;;;;;7.15;5.55;;;;;;;15.63;70.26;102317.06;5083403;28;20032;-84
2021/09/01 07:06:45;;;;;;;8.32;5.60;;;;;;;15.70;69.89;102320.41;5089296;28;20020;-83
2021/09/01 07:09:10;;;;;;;11.25;5.30;;;;;;;15.78;69.75;102314.38;5091076;28;20377;-82
2021/09/01 07:11:37;;;;;;;8.27;5.45;;;;;;;15.87;69.45;102318.25;5091564;28;20047;-82
2021/09/01 07:14:03;;;;;;;9.55;6.10;;;;;;;15.95;69.14;102320.47;5072475;28;20150;-84
2021/09/01 07:16:28;;;;;;;6.03;4.97;;;;;;;16.01;69.03;102318.53;5093890;28;20028;-83
2021/09/01 07:18:53;;;;;;;7.28;5.55;;;;;;;16.05;68.61;102318.84;5092767;28;20039;-84
2021/09/01 07:21:19;;;;;;;9.32;5.85;;;;;;;16.08;68.16;102323.78;5089386;28;20036;-84
2021/09/01 07:23:44;;;;;;;9.20;5.90;;;;;;;16.13;67.93;102329.31;5092384;28;20086;-84
2021/09/01 07:26:11;;;;;;;8.40;5.68;;;;;;;16.19;67.42;102325.47;5090613;28;20028;-85
2021/09/01 07:28:40;;;;;;;7.55;5.57;;;;;;;16.27;67.11;102324.91;5089011;28;20602;-83
2021/09/01 07:31:06;;;;;;;8.05;5.55;;;;;;;16.34;66.68;102324.63;5088238;28;20024;-84
2021/09/01 07:33:31;;;;;;;8.32;5.53;;;;;;;16.46;66.22;102330.69;5088967;28;20077;-84
2021/09/01 07:35:56;;;;;;;7.65;5.55;;;;;;;16.58;65.57;102322.97;5093177;28;20024;-85
2021/09/01 07:38:22;;;;;;;8.00;5.60;;;;;;;16.68;64.94;102324.88;5090276;28;20008;-84
2021/09/01 07:40:47;;;;;;;10.40;5.50;;;;;;;16.78;64.25;102327.66;5090392;28;20028;-84
2021/09/01 07:43:13;;;;;;;6.35;5.32;;;;;;;16.90;63.83;102335.63;5088867;28;20109;-83
2021/09/01 07:45:38;;;;;;;6.95;5.68;;;;;;;17.02;63.32;102332.56;5083958;28;20021;-83
2021/09/01 07:48:04;;;;;;;8.43;5.07;;;;;;;17.15;62.78;102334.72;5089051;28;20028;-83
2021/09/01 07:50:30;;;;;;;9.90;5.57;;;;;;;17.27;62.09;102338.00;5090719;28;20088;-84
2021/09/01 07:52:56;;;;;;;7.97;5.32;;;;;;;17.41;61.67;102338.22;5093223;28;20028;-84
2021/09/01 07:55:22;;;;;;;8.35;5.25;;;;;;;17.60;61.22;102351.41;5089803;28;20024;-86
2021/09/01 07:57:47;;;;;;;12.02;6.20;;;;;;;17.75;60.74;102349.34;5085698;28;20051;-84
2021/09/01 08:00:13;;;;;;;8.10;6.15;;;;;;;17.86;59.72;102346.56;5090791;28;20024;-84
2021/09/01 08:02:38;;;;;;;9.80;5.60;;;;;;;17.97;59.11;102348.16;5084643;28;20241;-84
2021/09/01 08:05:05;;;;;;;9.30;5.63;;;;;;;18.06;58.46;102348.38;5087445;28;20031;-83
2021/09/01 08:07:30;;;;;;;7.97;5.95;;;;;;;18.18;57.88;102355.19;5091887;28;20073;-84
2021/09/01 08:09:56;;;;;;;9.60;5.97;;;;;;;18.33;57.51;102361.72;5090057;28;20028;-86
2021/09/01 08:12:21;;;;;;;9.07;5.55;;;;;;;18.44;57.07;102368.78;5083843;28;20092;-84
2021/09/01 08:14:47;;;;;;;7.75;5.50;;;;;;;18.52;56.70;102365.41;5072152;28;20484;-85
2021/09/01 08:17:14;;;;;;;8.13;5.32;;;;;;;18.50;55.81;102373.19;5084715;28;20024;-84
2021/09/01 08:19:42;;;;;;;9.25;6.22;;;;;;;18.62;55.68;102370.03;5086639;28;20385;-85
2021/09/01 08:22:08;;;;;;;8.85;5.22;;;;;;;18.70;55.23;102374.13;5085593;28;20051;-86
2021/09/01 08:24:33;;;;;;;11.45;5.93;;;;;;;18.79;54.64;102377.94;5088279;28;20361;-86
2021/09/01 08:26:59;;;;;;;8.77;5.88;;;;;;;18.84;54.19;102373.16;5088323;28;20371;-84
2021/09/01 08:29:24;;;;;;;11.93;5.00;;;;;;;18.93;53.73;102383.59;5090616;28;20070;-85
2021/09/01 08:31:51;;;;;;;7.65;5.13;;;;;;;19.05;53.81;102384.84;5083213;28;20389;-85
2021/09/01 08:34:17;;;;;;;8.63;5.05;;;;;;;19.15;53.20;102383.94;5084396;28;20028;-85
2021/09/01 08:36:42;;;;;;;6.07;4.53;;;;;;;19.25;52.88;102385.75;5094669;28;20051;-86
2021/09/01 08:39:08;;;;;;;9.80;5.05;;;;;;;19.24;52.45;102387.69;5086852;28;20477;-85
2021/09/01 08:41:33;;;;;;;8.73;5.10;;;;;;;19.28;52.30;102398.97;5085164;28;20024;-84
2021/09/01 08:43:59;;;;;;;7.28;4.88;;;;;;;19.24;52.21;102398.75;5088037;28;20027;-91
2021/09/01 08:46:24;;;;;;;7.47;5.20;;;;;;;19.23;51.87;102399.88;5091994;28;20137;-85
2021/09/01 08:48:51;;;;;;;9.02;5.53;;;;;;;19.30;51.51;102391.22;5090672;28;20054;-85
2021/09/01 08:51:16;;;;;;;7.20;4.32;;;;;;;19.42;51.45;102388.84;5093116;28;20039;-85
2021/09/01 08:53:42;;;;;;;9.05;5.07;;;;;;;19.56;51.07;102385.38;5092063;28;20024;-87
2021/09/01 08:56:07;;;;;;;8.38;4.95;;;;;;;19.68;50.80;102391.34;5090773;28;20032;-87
2021/09/01 08:58:32;;;;;;;6.53;4.38;;;;;;;19.80;50.82;102383.44;5071164;28;20027;-87
2021/09/01 09:00:58;;;;;;;7.10;4.47;;;;;;;19.87;50.22;102389.44;5094720;28;20047;-87
2021/09/01 09:03:24;;;;;;;6.85;4.32;;;;;;;20.11;49.64;102383.03;5090603;28;20082;-89
2021/09/01 09:05:50;;;;;;;8.27;4.47;;;;;;;20.37;48.54;102380.66;5091679;28;20032;-86
2021/09/01 09:08:16;;;;;;;8.43;4.93;;;;;;;20.63;48.16;102377.53;5092024;28;20097;-88
2021/09/01 09:10:43;;;;;;;6.85;4.57;;;;;;;20.83;47.71;102369.66;5089205;28;20028;-88
2021/09/01 09:13:13;;;;;;;6.20;4.50;;;;;;;20.91;47.43;102372.84;5090765;28;20081;-93
2021/09/01 09:15:40;;;;;;;5.30;3.88;;;;;;;20.91;46.48;102367.31;5086121;28;20040;-87
2021/09/01 09:18:28;;;;;;;7.00;4.38;;;;;;;20.86;46.25;102364.63;5081135;28;20028;-88
2021/09/01 09:21:09;;;;;;;5.45;3.65;;;;;;;20.98;45.34;102364.94;5081427;28;20024;-88
2021/09/01 09:23:34;;;;;;;5.45;3.85;;;;;;;21.02;44.82;102368.75;5085545;28;20099;-88
2021/09/01 09:26:18;;;;;;;6.22;3.88;;;;;;;21.16;44.22;102375.13;5081015;28;20032;-88
2021/09/01 09:28:43;;;;;;;7.82;3.95;;;;;;;21.37;44.03;102374.75;5073036;28;20087;-88
2021/09/01 09:31:09;;;;;;;4.28;2.90;;;;;;;21.53;43.48;102378.88;5084857;28;20036;-88
2021/09/01 09:33:34;;;;;;;7.05;3.78;;;;;;;21.70;43.32;102373.50;5089163;28;20028;-86
2021/09/01 09:36:03;;;;;;;5.10;3.80;;;;;;;21.71;42.90;102375.13;5068111;28;20363;-87
2021/09/01 09:38:29;;;;;;;6.57;4.50;;;;;;;21.73;42.92;102377.59;5090001;28;20031;-87
2021/09/01 09:40:55;;;;;;;5.30;4.00;;;;;;;21.84;42.21;102362.34;5091545;28;20020;-85
2021/09/01 09:43:21;;;;;;;6.88;3.50;;;;;;;21.89;42.06;102369.75;5092904;28;20040;-86
2021/09/01 09:45:47;;;;;;;9.43;4.05;;;;;;;21.96;41.63;102370.13;5087867;28;20032;-87
2021/09/01 09:48:13;;;;;;;5.60;3.65;;;;;;;21.98;41.54;102373.44;5086967;28;20259;-87
2021/09/01 09:50:48;;;;;;;5.93;3.53;;;;;;;22.04;41.05;102372.16;5086968;28;20096;-87
2021/09/01 09:53:39;;;;;;;6.80;3.67;;;;;;;22.15;41.22;102376.38;5092167;28;20031;-87
2021/09/01 09:56:20;;;;;;;6.03;3.30;;;;;;;22.28;41.05;102371.09;5084404;28;20020;-91
2021/09/01 09:58:48;;;;;;;4.82;3.22;;;;;;;22.36;40.69;102368.38;5086954;28;20028;-91
2021/09/01 10:01:15;;;;;;;5.80;4.10;;;;;;;22.38;40.62;102365.28;5093904;28;20028;-90
2021/09/01 10:03:40;;;;;;;5.75;3.92;;;;;;;22.34;40.37;102364.28;5093791;28;20020;-90
2021/09/01 10:06:07;;;;;;;5.30;3.70;;;;;;;22.43;40.00;102365.16;5088661;28;20496;-89
2021/09/01 10:08:34;;;;;;;6.38;3.47;;;;;;;22.52;40.23;102357.69;5088792;28;20040;-89
2021/09/01 10:11:00;;;;;;;6.20;3.97;;;;;;;22.59;39.46;102360.06;5092716;28;20024;-87
2021/09/01 10:13:27;;;;;;;4.03;3.13;;;;;;;22.63;39.28;102360.22;5090918;28;20127;-88
2021/09/01 10:15:53;;;;;;;4.10;3.33;;;;;;;22.71;39.14;102365.84;5087396;28;20363;-86
2021/09/01 10:18:18;;;;;;;6.38;4.13;;;;;;;22.68;39.15;102357.31;5072582;28;20012;-87
2021/09/01 10:20:44;;;;;;;5.57;3.78;;;;;;;22.81;38.44;102362.78;5089314;28;20023;-87
2021/09/01 10:23:10;;;;;;;4.90;3.42;;;;;;;22.85;38.85;102357.41;5092432;28;20028;-91
2021/09/01 10:25:45;;;;;;;6.72;3.55;;;;;;;22.89;39.07;102352.84;5087742;28;20060;-86
2021/09/01 10:28:19;;;;;;;6.82;3.63;;;;;;;23.19;38.32;102361.50;5089497;28;20432;-86
2021/09/01 10:31:10;;;;;;;6.22;3.50;;;;;;;23.47;37.72;102362.91;5090974;28;20393;-86
2021/09/01 10:33:36;;;;;;;6.18;3.50;;;;;;;23.69;37.54;102358.38;5086956;28;20374;-85
2021/09/01 10:36:23;;;;;;;6.63;3.47;;;;;;;23.57;37.30;102355.38;5091339;28;20024;-86
2021/09/01 10:39:07;;;;;;;7.00;4.30;;;;;;;23.51;37.66;102353.91;5076166;28;20171;-86
2021/09/01 10:41:33;;;;;;;4.85;3.55;;;;;;;23.52;39.15;102359.16;5087533;28;20020;-85
2021/09/01 10:44:11;;;;;;;5.20;4.22;;;;;;;23.41;39.71;102363.41;5073265;28;20028;-85
2021/09/01 10:46:58;;;;;;;6.18;4.40;;;;;;;22.87;41.13;102366.25;5085367;28;20124;-87
2021/09/01 10:49:25;;;;;;;4.78;3.72;;;;;;;22.48;41.74;102365.06;5073315;28;20036;-86
2021/09/01 10:51:52;;;;;;;5.40;4.20;;;;;;;22.27;41.79;102358.34;5092809;28;20474;-86
2021/09/01 10:54:36;;;;;;;7.75;3.90;;;;;;;22.27;42.39;102366.69;5075205;28;20111;-84
2021/09/01 10:57:06;;;;;;;4.47;3.65;;;;;;;22.38;42.21;102356.97;5088094;28;20024;-85
2021/09/01 10:59:36;;;;;;;8.00;4.40;;;;;;;22.57;42.79;102354.78;5091919;28;20073;-87
2021/09/01 11:02:19;;;;;;;10.13;4.00;;;;;;;22.67;42.40;102361.22;5089003;28;20039;-86
2021/09/01 11:04:51;;;;;;;;;;;;;;;22.47;42.74;102359.78;5085906;28;20480;-84
2021/09/01 11:07:29;;;;;;;5.53;4.03;;;;;;;22.40;42.39;102357.47;5090985;28;20358;-84
2021/09/01 11:09:56;;;;;;;6.20;4.90;;;;;;;22.27;42.65;102358.34;5086880;28;20482;-81
2021/09/01 11:12:21;;;;;;;7.53;4.32;;;;;;;22.36;43.17;102350.88;5091738;28;20035;-81
2021/09/01 11:14:51;;;;;;;5.05;4.10;;;;;;;22.46;42.73;102361.75;5091068;28;20028;-83
2021/09/01 11:17:18;;;;;;;6.85;4.07;;;;;;;22.58;42.66;102359.22;5090172;28;20084;-83
2021/09/01 11:19:47;;;;;;;7.97;4.85;;;;;;;22.40;43.22;102357.47;5089346;28;20051;-82
2021/09/01 11:22:17;;;;;;;6.75;4.53;;;;;;;22.14;44.09;102360.81;5087446;28;20032;-83